sensor_id;sensor_type;location;lat;lon;timestamp;P1;durP1;ratioP1;P2;durP2;ratioP2
78027;SDS011;67235;45.638;11.714;2023-06-14T00:01:56;11.50;;;5.90;;
78027;SDS011;67235;45.638;11.714;2023-06-14T00:04:23;9.45;;;6.20;;
78027;SDS011;67235;45.638;11.714;2023-06-14T00:06:50;9.50;;;5.60;;
78027;SDS011;67235;45.638;11.714;2023-06-14T00:09:16;10.27;;;5.93;;
78027;SDS011;67235;45.638;11.714;2023-06-14T00:11:43;10.95;;;6.03;;
78027;SDS011;67235;45.638;11.714;2023-06-14T00:14:09;10.95;;;5.95;;
78027;SDS011;67235;45.638;11.714;2023-06-14T00:16:35;11.32;;;6.40;;
78027;SDS011;67235;45.638;11.714;2023-06-14T00:19:02;12.57;;;7.20;;
78027;SDS011;67235;45.638;11.714;2023-06-14T00:21:31;11.80;;;6.72;;
78027;SDS011;67235;45.638;11.714;2023-06-14T00:23:57;10.82;;;6.18;;
78027;SDS011;67235;45.638;11.714;2023-06-14T00:26:24;11.25;;;6.80;;
78027;SDS011;67235;45.638;11.714;2023-06-14T00:28:51;10.77;;;6.55;;
78027;SDS011;67235;45.638;11.714;2023-06-14T00:31:17;11.00;;;6.37;;
78027;SDS011;67235;45.638;11.714;2023-06-14T00:33:43;12.35;;;6.20;;
78027;SDS011;67235;45.638;11.714;2023-06-14T00:36:10;9.80;;;6.13;;
78027;SDS011;67235;45.638;11.714;2023-06-14T00:38:35;11.23;;;6.17;;
78027;SDS011;67235;45.638;11.714;2023-06-14T00:41:01;9.80;;;5.75;;
78027;SDS011;67235;45.638;11.714;2023-06-14T00:43:27;12.57;;;6.05;;
78027;SDS011;67235;45.638;11.714;2023-06-14T00:45:53;10.33;;;5.47;;
78027;SDS011;67235;45.638;11.714;2023-06-14T00:48:19;9.50;;;6.00;;
78027;SDS011;67235;45.638;11.714;2023-06-14T00:50:45;9.75;;;5.75;;
78027;SDS011;67235;45.638;11.714;2023-06-14T00:53:14;10.67;;;5.90;;
78027;SDS011;67235;45.638;11.714;2023-06-14T00:55:40;12.45;;;6.45;;
78027;SDS011;67235;45.638;11.714;2023-06-14T00:58:07;12.32;;;6.55;;
78027;SDS011;67235;45.638;11.714;2023-06-14T01:00:33;13.90;;;6.63;;
78027;SDS011;67235;45.638;11.714;2023-06-14T01:02:59;11.17;;;6.20;;
78027;SDS011;67235;45.638;11.714;2023-06-14T01:05:26;13.10;;;6.60;;
78027;SDS011;67235;45.638;11.714;2023-06-14T01:11:06;10.98;;;6.47;;
78027;SDS011;67235;45.638;11.714;2023-06-14T01:13:38;9.57;;;5.78;;
78027;SDS011;67235;45.638;11.714;2023-06-14T01:16:07;11.80;;;6.30;;
78027;SDS011;67235;45.638;11.714;2023-06-14T01:18:34;9.57;;;5.88;;
78027;SDS011;67235;45.638;11.714;2023-06-14T01:21:00;9.40;;;5.60;;
78027;SDS011;67235;45.638;11.714;2023-06-14T01:23:31;9.73;;;5.40;;
78027;SDS011;67235;45.638;11.714;2023-06-14T01:25:58;11.57;;;5.75;;
78027;SDS011;67235;45.638;11.714;2023-06-14T01:28:25;8.70;;;5.27;;
78027;SDS011;67235;45.638;11.714;2023-06-14T01:30:57;11.68;;;5.72;;
78027;SDS011;67235;45.638;11.714;2023-06-14T01:33:28;10.43;;;5.63;;
78027;SDS011;67235;45.638;11.714;2023-06-14T01:35:55;11.52;;;5.30;;
78027;SDS011;67235;45.638;11.714;2023-06-14T01:38:23;8.48;;;4.63;;
78027;SDS011;67235;45.638;11.714;2023-06-14T01:40:50;9.33;;;5.03;;
78027;SDS011;67235;45.638;11.714;2023-06-14T01:43:18;11.18;;;5.30;;
78027;SDS011;67235;45.638;11.714;2023-06-14T01:45:46;9.85;;;5.53;;
78027;SDS011;67235;45.638;11.714;2023-06-14T01:48:16;10.25;;;5.38;;
78027;SDS011;67235;45.638;11.714;2023-06-14T01:50:42;11.00;;;5.32;;
78027;SDS011;67235;45.638;11.714;2023-06-14T01:53:08;12.40;;;5.33;;
78027;SDS011;67235;45.638;11.714;2023-06-14T01:55:35;8.93;;;5.32;;
78027;SDS011;67235;45.638;11.714;2023-06-14T01:58:11;9.82;;;5.03;;
78027;SDS011;67235;45.638;11.714;2023-06-14T02:00:37;9.90;;;5.28;;
78027;SDS011;67235;45.638;11.714;2023-06-14T02:03:02;10.37;;;5.77;;
78027;SDS011;67235;45.638;11.714;2023-06-14T02:05:31;10.80;;;5.75;;
78027;SDS011;67235;45.638;11.714;2023-06-14T02:07:57;9.25;;;5.65;;
78027;SDS011;67235;45.638;11.714;2023-06-14T02:10:23;12.77;;;5.40;;
78027;SDS011;67235;45.638;11.714;2023-06-14T02:12:49;10.35;;;4.85;;
78027;SDS011;67235;45.638;11.714;2023-06-14T02:15:15;9.40;;;5.18;;
78027;SDS011;67235;45.638;11.714;2023-06-14T02:17:45;10.20;;;4.90;;
78027;SDS011;67235;45.638;11.714;2023-06-14T02:20:14;10.17;;;4.80;;
78027;SDS011;67235;45.638;11.714;2023-06-14T02:22:40;7.80;;;4.78;;
78027;SDS011;67235;45.638;11.714;2023-06-14T02:25:07;12.73;;;5.50;;
78027;SDS011;67235;45.638;11.714;2023-06-14T02:27:33;8.15;;;4.63;;
78027;SDS011;67235;45.638;11.714;2023-06-14T02:30:00;11.18;;;5.55;;
78027;SDS011;67235;45.638;11.714;2023-06-14T02:32:26;9.83;;;5.87;;
78027;SDS011;67235;45.638;11.714;2023-06-14T02:34:52;9.93;;;5.40;;
78027;SDS011;67235;45.638;11.714;2023-06-14T02:37:22;10.35;;;5.50;;
78027;SDS011;67235;45.638;11.714;2023-06-14T02:39:48;9.52;;;5.18;;
78027;SDS011;67235;45.638;11.714;2023-06-14T02:42:14;9.10;;;4.87;;
78027;SDS011;67235;45.638;11.714;2023-06-14T02:44:39;9.57;;;5.63;;
78027;SDS011;67235;45.638;11.714;2023-06-14T02:47:05;10.00;;;5.15;;
78027;SDS011;67235;45.638;11.714;2023-06-14T02:49:31;9.05;;;5.13;;
78027;SDS011;67235;45.638;11.714;2023-06-14T02:51:57;9.83;;;5.37;;
78027;SDS011;67235;45.638;11.714;2023-06-14T02:54:23;9.57;;;5.40;;
78027;SDS011;67235;45.638;11.714;2023-06-14T02:56:49;8.40;;;4.85;;
78027;SDS011;67235;45.638;11.714;2023-06-14T02:59:15;10.23;;;5.83;;
78027;SDS011;67235;45.638;11.714;2023-06-14T03:01:42;9.30;;;5.30;;
78027;SDS011;67235;45.638;11.714;2023-06-14T03:04:08;9.82;;;5.60;;
78027;SDS011;67235;45.638;11.714;2023-06-14T03:06:34;10.32;;;5.28;;
78027;SDS011;67235;45.638;11.714;2023-06-14T03:09:01;9.07;;;5.25;;
78027;SDS011;67235;45.638;11.714;2023-06-14T03:11:31;9.90;;;5.28;;
78027;SDS011;67235;45.638;11.714;2023-06-14T03:13:57;8.30;;;4.78;;
78027;SDS011;67235;45.638;11.714;2023-06-14T03:16:24;10.63;;;4.93;;
78027;SDS011;67235;45.638;11.714;2023-06-14T03:18:50;10.18;;;5.68;;
78027;SDS011;67235;45.638;11.714;2023-06-14T03:21:17;10.10;;;5.30;;
78027;SDS011;67235;45.638;11.714;2023-06-14T03:23:44;9.18;;;5.03;;
78027;SDS011;67235;45.638;11.714;2023-06-14T03:26:10;8.95;;;5.20;;
78027;SDS011;67235;45.638;11.714;2023-06-14T03:28:40;10.13;;;5.80;;
78027;SDS011;67235;45.638;11.714;2023-06-14T03:31:06;10.77;;;6.10;;
78027;SDS011;67235;45.638;11.714;2023-06-14T03:33:34;9.18;;;6.10;;
78027;SDS011;67235;45.638;11.714;2023-06-14T03:36:01;10.88;;;5.88;;
78027;SDS011;67235;45.638;11.714;2023-06-14T03:38:27;9.35;;;5.68;;
78027;SDS011;67235;45.638;11.714;2023-06-14T03:40:53;10.73;;;6.50;;
78027;SDS011;67235;45.638;11.714;2023-06-14T03:43:18;11.15;;;6.70;;
78027;SDS011;67235;45.638;11.714;2023-06-14T03:45:44;11.30;;;6.60;;
78027;SDS011;67235;45.638;11.714;2023-06-14T03:48:10;10.73;;;6.53;;
78027;SDS011;67235;45.638;11.714;2023-06-14T03:50:36;10.63;;;6.72;;
78027;SDS011;67235;45.638;11.714;2023-06-14T03:53:05;11.73;;;7.15;;
78027;SDS011;67235;45.638;11.714;2023-06-14T03:55:31;12.43;;;7.40;;
78027;SDS011;67235;45.638;11.714;2023-06-14T03:57:58;11.48;;;7.15;;
78027;SDS011;67235;45.638;11.714;2023-06-14T04:00:24;11.70;;;6.82;;
78027;SDS011;67235;45.638;11.714;2023-06-14T04:02:51;10.25;;;6.40;;
78027;SDS011;67235;45.638;11.714;2023-06-14T04:05:17;11.02;;;6.30;;
78027;SDS011;67235;45.638;11.714;2023-06-14T04:07:44;12.77;;;6.60;;
78027;SDS011;67235;45.638;11.714;2023-06-14T04:10:14;11.13;;;5.47;;
78027;SDS011;67235;45.638;11.714;2023-06-14T04:12:41;9.27;;;5.20;;
78027;SDS011;67235;45.638;11.714;2023-06-14T04:15:08;8.65;;;5.18;;
78027;SDS011;67235;45.638;11.714;2023-06-14T04:17:34;8.88;;;4.45;;
78027;SDS011;67235;45.638;11.714;2023-06-14T04:20:02;7.82;;;4.68;;
78027;SDS011;67235;45.638;11.714;2023-06-14T04:22:30;8.70;;;4.63;;
78027;SDS011;67235;45.638;11.714;2023-06-14T04:24:56;7.45;;;4.68;;
78027;SDS011;67235;45.638;11.714;2023-06-14T04:27:22;7.78;;;4.78;;
78027;SDS011;67235;45.638;11.714;2023-06-14T04:29:51;6.63;;;3.97;;
78027;SDS011;67235;45.638;11.714;2023-06-14T04:32:25;7.35;;;4.20;;
78027;SDS011;67235;45.638;11.714;2023-06-14T04:34:53;7.63;;;4.40;;
78027;SDS011;67235;45.638;11.714;2023-06-14T04:37:22;8.02;;;4.38;;
78027;SDS011;67235;45.638;11.714;2023-06-14T04:39:49;10.13;;;4.30;;
78027;SDS011;67235;45.638;11.714;2023-06-14T04:42:15;10.75;;;4.47;;
78027;SDS011;67235;45.638;11.714;2023-06-14T04:44:42;7.35;;;4.32;;
78027;SDS011;67235;45.638;11.714;2023-06-14T04:47:08;8.00;;;4.50;;
78027;SDS011;67235;45.638;11.714;2023-06-14T04:49:36;7.32;;;4.30;;
78027;SDS011;67235;45.638;11.714;2023-06-14T04:52:02;9.50;;;4.13;;
78027;SDS011;67235;45.638;11.714;2023-06-14T04:54:28;7.70;;;4.20;;
78027;SDS011;67235;45.638;11.714;2023-06-14T04:56:56;7.63;;;4.03;;
78027;SDS011;67235;45.638;11.714;2023-06-14T04:59:22;6.90;;;3.80;;
78027;SDS011;67235;45.638;11.714;2023-06-14T05:01:49;7.28;;;4.20;;
78027;SDS011;67235;45.638;11.714;2023-06-14T05:04:16;7.22;;;4.20;;
78027;SDS011;67235;45.638;11.714;2023-06-14T05:06:44;9.90;;;4.23;;
78027;SDS011;67235;45.638;11.714;2023-06-14T05:09:14;6.82;;;3.60;;
78027;SDS011;67235;45.638;11.714;2023-06-14T05:11:43;8.20;;;4.47;;
78027;SDS011;67235;45.638;11.714;2023-06-14T05:14:10;8.32;;;3.40;;
78027;SDS011;67235;45.638;11.714;2023-06-14T05:16:37;7.35;;;4.20;;
78027;SDS011;67235;45.638;11.714;2023-06-14T05:19:04;7.63;;;3.50;;
78027;SDS011;67235;45.638;11.714;2023-06-14T05:21:31;8.13;;;3.70;;
78027;SDS011;67235;45.638;11.714;2023-06-14T05:24:00;6.05;;;3.25;;
78027;SDS011;67235;45.638;11.714;2023-06-14T05:26:30;7.78;;;3.20;;
78027;SDS011;67235;45.638;11.714;2023-06-14T05:28:56;7.63;;;3.47;;
78027;SDS011;67235;45.638;11.714;2023-06-14T05:31:25;8.10;;;3.30;;
78027;SDS011;67235;45.638;11.714;2023-06-14T05:33:52;6.40;;;3.38;;
78027;SDS011;67235;45.638;11.714;2023-06-14T05:36:18;6.30;;;3.60;;
78027;SDS011;67235;45.638;11.714;2023-06-14T05:38:48;9.10;;;3.45;;
78027;SDS011;67235;45.638;11.714;2023-06-14T05:41:16;6.10;;;3.38;;
78027;SDS011;67235;45.638;11.714;2023-06-14T05:43:42;6.10;;;3.50;;
78027;SDS011;67235;45.638;11.714;2023-06-14T05:46:09;5.95;;;3.20;;
78027;SDS011;67235;45.638;11.714;2023-06-14T05:48:35;6.75;;;3.15;;
78027;SDS011;67235;45.638;11.714;2023-06-14T05:51:01;6.93;;;3.40;;
78027;SDS011;67235;45.638;11.714;2023-06-14T05:53:27;6.17;;;3.67;;
78027;SDS011;67235;45.638;11.714;2023-06-14T05:55:52;6.35;;;3.17;;
78027;SDS011;67235;45.638;11.714;2023-06-14T05:58:20;5.45;;;2.75;;
78027;SDS011;67235;45.638;11.714;2023-06-14T06:00:46;6.03;;;2.90;;
78027;SDS011;67235;45.638;11.714;2023-06-14T06:03:12;7.25;;;3.08;;
78027;SDS011;67235;45.638;11.714;2023-06-14T06:05:38;5.63;;;2.83;;
78027;SDS011;67235;45.638;11.714;2023-06-14T06:08:04;5.68;;;2.95;;
78027;SDS011;67235;45.638;11.714;2023-06-14T06:10:30;6.10;;;3.30;;
78027;SDS011;67235;45.638;11.714;2023-06-14T06:12:57;7.78;;;3.35;;
78027;SDS011;67235;45.638;11.714;2023-06-14T06:15:23;6.50;;;3.30;;
78027;SDS011;67235;45.638;11.714;2023-06-14T06:17:48;5.93;;;2.53;;
78027;SDS011;67235;45.638;11.714;2023-06-14T06:20:16;6.55;;;2.47;;
78027;SDS011;67235;45.638;11.714;2023-06-14T06:22:42;6.13;;;2.67;;
78027;SDS011;67235;45.638;11.714;2023-06-14T06:25:08;6.90;;;2.83;;
78027;SDS011;67235;45.638;11.714;2023-06-14T06:27:35;5.25;;;2.90;;
78027;SDS011;67235;45.638;11.714;2023-06-14T06:30:05;8.10;;;2.77;;
78027;SDS011;67235;45.638;11.714;2023-06-14T06:32:31;6.57;;;2.88;;
78027;SDS011;67235;45.638;11.714;2023-06-14T06:34:57;5.18;;;2.70;;
78027;SDS011;67235;45.638;11.714;2023-06-14T06:37:24;6.28;;;2.92;;
78027;SDS011;67235;45.638;11.714;2023-06-14T06:39:50;7.27;;;2.60;;
78027;SDS011;67235;45.638;11.714;2023-06-14T06:42:16;6.32;;;2.80;;
78027;SDS011;67235;45.638;11.714;2023-06-14T06:44:42;5.72;;;2.80;;
78027;SDS011;67235;45.638;11.714;2023-06-14T06:47:08;5.93;;;3.00;;
78027;SDS011;67235;45.638;11.714;2023-06-14T06:49:36;5.30;;;2.80;;
78027;SDS011;67235;45.638;11.714;2023-06-14T06:52:03;6.18;;;2.90;;
78027;SDS011;67235;45.638;11.714;2023-06-14T06:54:30;5.00;;;2.53;;
78027;SDS011;67235;45.638;11.714;2023-06-14T06:56:56;6.23;;;3.30;;
78027;SDS011;67235;45.638;11.714;2023-06-14T06:59:22;5.20;;;2.60;;
78027;SDS011;67235;45.638;11.714;2023-06-14T07:01:48;5.30;;;2.40;;
78027;SDS011;67235;45.638;11.714;2023-06-14T07:04:14;6.13;;;2.70;;
78027;SDS011;67235;45.638;11.714;2023-06-14T07:06:41;4.93;;;2.53;;
78027;SDS011;67235;45.638;11.714;2023-06-14T07:09:08;5.30;;;2.60;;
78027;SDS011;67235;45.638;11.714;2023-06-14T07:11:39;5.25;;;2.33;;
78027;SDS011;67235;45.638;11.714;2023-06-14T07:14:05;5.20;;;2.30;;
78027;SDS011;67235;45.638;11.714;2023-06-14T07:16:31;4.63;;;2.45;;
78027;SDS011;67235;45.638;11.714;2023-06-14T07:18:57;6.77;;;2.67;;
78027;SDS011;67235;45.638;11.714;2023-06-14T07:21:23;5.50;;;2.50;;
78027;SDS011;67235;45.638;11.714;2023-06-14T07:23:52;5.30;;;2.35;;
78027;SDS011;67235;45.638;11.714;2023-06-14T07:26:19;6.32;;;2.53;;
78027;SDS011;67235;45.638;11.714;2023-06-14T07:28:45;5.32;;;2.50;;
78027;SDS011;67235;45.638;11.714;2023-06-14T07:31:12;5.57;;;2.50;;
78027;SDS011;67235;45.638;11.714;2023-06-14T07:33:41;5.97;;;2.80;;
78027;SDS011;67235;45.638;11.714;2023-06-14T07:36:07;6.18;;;2.70;;
78027;SDS011;67235;45.638;11.714;2023-06-14T07:38:33;5.72;;;2.90;;
78027;SDS011;67235;45.638;11.714;2023-06-14T07:41:00;5.78;;;3.05;;
78027;SDS011;67235;45.638;11.714;2023-06-14T07:43:26;5.80;;;2.70;;
78027;SDS011;67235;45.638;11.714;2023-06-14T07:45:52;5.32;;;2.85;;
78027;SDS011;67235;45.638;11.714;2023-06-14T07:48:18;5.43;;;2.80;;
78027;SDS011;67235;45.638;11.714;2023-06-14T07:50:44;6.40;;;2.97;;
78027;SDS011;67235;45.638;11.714;2023-06-14T07:53:10;5.43;;;2.65;;
78027;SDS011;67235;45.638;11.714;2023-06-14T07:55:36;6.90;;;2.88;;
78027;SDS011;67235;45.638;11.714;2023-06-14T07:58:08;7.03;;;2.97;;
78027;SDS011;67235;45.638;11.714;2023-06-14T08:00:35;6.22;;;3.42;;
78027;SDS011;67235;45.638;11.714;2023-06-14T08:03:01;6.83;;;3.60;;
78027;SDS011;67235;45.638;11.714;2023-06-14T08:05:28;5.53;;;2.95;;
78027;SDS011;67235;45.638;11.714;2023-06-14T08:07:54;5.75;;;2.90;;
78027;SDS011;67235;45.638;11.714;2023-06-14T08:10:21;5.70;;;3.08;;
78027;SDS011;67235;45.638;11.714;2023-06-14T08:12:47;5.32;;;2.95;;
78027;SDS011;67235;45.638;11.714;2023-06-14T08:15:16;5.83;;;3.00;;
78027;SDS011;67235;45.638;11.714;2023-06-14T08:17:43;6.10;;;3.15;;
78027;SDS011;67235;45.638;11.714;2023-06-14T08:20:09;6.13;;;3.20;;
78027;SDS011;67235;45.638;11.714;2023-06-14T08:22:36;6.93;;;2.83;;
78027;SDS011;67235;45.638;11.714;2023-06-14T08:25:02;5.38;;;2.80;;
78027;SDS011;67235;45.638;11.714;2023-06-14T08:27:29;5.57;;;2.90;;
78027;SDS011;67235;45.638;11.714;2023-06-14T08:29:55;5.72;;;3.10;;
78027;SDS011;67235;45.638;11.714;2023-06-14T08:32:22;6.20;;;3.25;;
78027;SDS011;67235;45.638;11.714;2023-06-14T08:34:48;8.13;;;3.40;;
78027;SDS011;67235;45.638;11.714;2023-06-14T08:37:13;6.93;;;3.50;;
78027;SDS011;67235;45.638;11.714;2023-06-14T08:39:39;5.90;;;3.20;;
78027;SDS011;67235;45.638;11.714;2023-06-14T08:42:05;5.60;;;2.88;;
78027;SDS011;67235;45.638;11.714;2023-06-14T08:44:34;5.57;;;3.20;;
78027;SDS011;67235;45.638;11.714;2023-06-14T08:47:00;5.90;;;3.00;;
78027;SDS011;67235;45.638;11.714;2023-06-14T08:49:28;5.15;;;2.92;;
78027;SDS011;67235;45.638;11.714;2023-06-14T08:51:59;6.35;;;3.47;;
78027;SDS011;67235;45.638;11.714;2023-06-14T08:54:27;7.43;;;3.40;;
78027;SDS011;67235;45.638;11.714;2023-06-14T08:56:57;6.30;;;3.30;;
78027;SDS011;67235;45.638;11.714;2023-06-14T08:59:27;6.43;;;3.17;;
78027;SDS011;67235;45.638;11.714;2023-06-14T09:01:53;6.50;;;3.38;;
78027;SDS011;67235;45.638;11.714;2023-06-14T09:04:23;7.32;;;3.17;;
78027;SDS011;67235;45.638;11.714;2023-06-14T09:06:54;6.70;;;3.42;;
78027;SDS011;67235;45.638;11.714;2023-06-14T09:09:21;6.67;;;2.97;;
78027;SDS011;67235;45.638;11.714;2023-06-14T09:11:53;7.97;;;3.35;;
78027;SDS011;67235;45.638;11.714;2023-06-14T09:14:21;6.22;;;3.35;;
78027;SDS011;67235;45.638;11.714;2023-06-14T09:16:51;6.35;;;3.30;;
78027;SDS011;67235;45.638;11.714;2023-06-14T09:19:21;7.45;;;3.63;;
78027;SDS011;67235;45.638;11.714;2023-06-14T09:21:49;7.00;;;3.27;;
78027;SDS011;67235;45.638;11.714;2023-06-14T09:24:16;7.65;;;3.45;;
78027;SDS011;67235;45.638;11.714;2023-06-14T09:26:42;5.70;;;2.97;;
78027;SDS011;67235;45.638;11.714;2023-06-14T09:29:09;6.03;;;3.08;;
78027;SDS011;67235;45.638;11.714;2023-06-14T09:31:35;6.93;;;3.03;;
78027;SDS011;67235;45.638;11.714;2023-06-14T09:34:02;6.13;;;3.22;;
78027;SDS011;67235;45.638;11.714;2023-06-14T09:36:28;7.28;;;3.95;;
78027;SDS011;67235;45.638;11.714;2023-06-14T09:39:00;5.45;;;2.95;;
78027;SDS011;67235;45.638;11.714;2023-06-14T09:44:05;7.13;;;3.27;;
78027;SDS011;67235;45.638;11.714;2023-06-14T09:46:32;6.30;;;3.28;;
78027;SDS011;67235;45.638;11.714;2023-06-14T09:48:58;7.55;;;3.35;;
78027;SDS011;67235;45.638;11.714;2023-06-14T09:51:24;5.90;;;3.30;;
78027;SDS011;67235;45.638;11.714;2023-06-14T09:53:52;6.13;;;3.10;;
78027;SDS011;67235;45.638;11.714;2023-06-14T09:56:28;8.33;;;3.40;;
78027;SDS011;67235;45.638;11.714;2023-06-14T09:58:55;6.07;;;3.30;;
78027;SDS011;67235;45.638;11.714;2023-06-14T10:01:24;6.93;;;3.60;;
78027;SDS011;67235;45.638;11.714;2023-06-14T10:04:04;9.27;;;3.33;;
78027;SDS011;67235;45.638;11.714;2023-06-14T10:06:31;6.03;;;3.20;;
78027;SDS011;67235;45.638;11.714;2023-06-14T10:09:02;5.77;;;3.13;;
78027;SDS011;67235;45.638;11.714;2023-06-14T10:11:30;6.95;;;3.30;;
78027;SDS011;67235;45.638;11.714;2023-06-14T10:13:57;6.90;;;3.65;;
78027;SDS011;67235;45.638;11.714;2023-06-14T10:17:25;5.68;;;3.05;;
78027;SDS011;67235;45.638;11.714;2023-06-14T10:22:49;7.17;;;3.50;;
78027;SDS011;67235;45.638;11.714;2023-06-14T10:25:16;5.82;;;3.28;;
78027;SDS011;67235;45.638;11.714;2023-06-14T10:27:53;8.10;;;3.67;;
78027;SDS011;67235;45.638;11.714;2023-06-14T10:30:28;7.65;;;3.40;;
78027;SDS011;67235;45.638;11.714;2023-06-14T10:33:03;6.77;;;3.30;;
78027;SDS011;67235;45.638;11.714;2023-06-14T10:35:31;7.28;;;3.08;;
78027;SDS011;67235;45.638;11.714;2023-06-14T10:38:09;6.82;;;3.35;;
78027;SDS011;67235;45.638;11.714;2023-06-14T10:40:37;5.80;;;3.10;;
78027;SDS011;67235;45.638;11.714;2023-06-14T10:43:21;6.07;;;3.37;;
78027;SDS011;67235;45.638;11.714;2023-06-14T10:48:43;7.10;;;3.47;;
78027;SDS011;67235;45.638;11.714;2023-06-14T10:51:19;6.07;;;3.60;;
78027;SDS011;67235;45.638;11.714;2023-06-14T10:53:46;6.82;;;3.33;;
78027;SDS011;67235;45.638;11.714;2023-06-14T10:56:28;5.80;;;3.63;;
78027;SDS011;67235;45.638;11.714;2023-06-14T10:58:56;7.57;;;3.58;;
78027;SDS011;67235;45.638;11.714;2023-06-14T11:01:31;7.70;;;3.55;;
78027;SDS011;67235;45.638;11.714;2023-06-14T11:04:11;6.88;;;3.47;;
78027;SDS011;67235;45.638;11.714;2023-06-14T11:06:50;6.50;;;3.60;;
78027;SDS011;67235;45.638;11.714;2023-06-14T11:09:31;5.77;;;3.17;;
78027;SDS011;67235;45.638;11.714;2023-06-14T11:12:26;5.53;;;3.35;;
78027;SDS011;67235;45.638;11.714;2023-06-14T11:14:56;6.30;;;3.22;;
78027;SDS011;67235;45.638;11.714;2023-06-14T11:17:22;6.32;;;3.72;;
78027;SDS011;67235;45.638;11.714;2023-06-14T11:19:48;7.13;;;3.95;;
78027;SDS011;67235;45.638;11.714;2023-06-14T11:22:14;7.27;;;3.90;;
78027;SDS011;67235;45.638;11.714;2023-06-14T11:24:42;6.43;;;3.47;;
78027;SDS011;67235;45.638;11.714;2023-06-14T11:27:09;7.28;;;3.20;;
78027;SDS011;67235;45.638;11.714;2023-06-14T11:29:36;6.85;;;3.00;;
78027;SDS011;67235;45.638;11.714;2023-06-14T11:32:02;5.70;;;3.50;;
78027;SDS011;67235;45.638;11.714;2023-06-14T11:34:31;6.45;;;3.20;;
78027;SDS011;67235;45.638;11.714;2023-06-14T11:36:57;6.53;;;3.35;;
78027;SDS011;67235;45.638;11.714;2023-06-14T11:39:26;5.97;;;3.37;;
78027;SDS011;67235;45.638;11.714;2023-06-14T11:41:52;6.55;;;3.03;;
78027;SDS011;67235;45.638;11.714;2023-06-14T11:44:20;7.32;;;3.22;;
78027;SDS011;67235;45.638;11.714;2023-06-14T11:46:46;6.93;;;3.00;;
78027;SDS011;67235;45.638;11.714;2023-06-14T11:49:12;5.50;;;3.20;;
78027;SDS011;67235;45.638;11.714;2023-06-14T11:51:37;10.75;;;3.70;;
78027;SDS011;67235;45.638;11.714;2023-06-14T11:54:04;8.77;;;3.13;;
78027;SDS011;67235;45.638;11.714;2023-06-14T11:56:32;7.47;;;3.55;;
78027;SDS011;67235;45.638;11.714;2023-06-14T11:58:58;5.90;;;3.33;;
78027;SDS011;67235;45.638;11.714;2023-06-14T12:01:25;5.97;;;3.45;;
78027;SDS011;67235;45.638;11.714;2023-06-14T12:03:52;6.30;;;3.40;;
78027;SDS011;67235;45.638;11.714;2023-06-14T12:06:28;6.18;;;3.30;;
78027;SDS011;67235;45.638;11.714;2023-06-14T12:08:57;6.10;;;3.33;;
78027;SDS011;67235;45.638;11.714;2023-06-14T12:11:24;5.82;;;3.40;;
78027;SDS011;67235;45.638;11.714;2023-06-14T12:13:58;5.95;;;3.40;;
78027;SDS011;67235;45.638;11.714;2023-06-14T12:16:29;6.22;;;3.10;;
78027;SDS011;67235;45.638;11.714;2023-06-14T12:18:59;9.40;;;3.80;;
78027;SDS011;67235;45.638;11.714;2023-06-14T12:21:27;7.00;;;3.93;;
78027;SDS011;67235;45.638;11.714;2023-06-14T12:23:54;6.22;;;3.50;;
78027;SDS011;67235;45.638;11.714;2023-06-14T12:26:20;6.70;;;3.90;;
78027;SDS011;67235;45.638;11.714;2023-06-14T12:28:46;8.88;;;3.63;;
78027;SDS011;67235;45.638;11.714;2023-06-14T12:31:16;7.40;;;3.25;;
78027;SDS011;67235;45.638;11.714;2023-06-14T12:33:42;5.97;;;3.50;;
78027;SDS011;67235;45.638;11.714;2023-06-14T12:36:08;7.85;;;3.42;;
78027;SDS011;67235;45.638;11.714;2023-06-14T12:38:36;7.32;;;3.30;;
78027;SDS011;67235;45.638;11.714;2023-06-14T12:41:03;6.05;;;3.42;;
78027;SDS011;67235;45.638;11.714;2023-06-14T12:43:33;5.53;;;3.28;;
78027;SDS011;67235;45.638;11.714;2023-06-14T12:46:02;5.67;;;3.30;;
78027;SDS011;67235;45.638;11.714;2023-06-14T12:48:28;7.00;;;3.42;;
78027;SDS011;67235;45.638;11.714;2023-06-14T12:50:56;6.07;;;3.00;;
78027;SDS011;67235;45.638;11.714;2023-06-14T12:53:23;5.28;;;3.13;;
78027;SDS011;67235;45.638;11.714;2023-06-14T12:55:49;6.53;;;3.80;;
78027;SDS011;67235;45.638;11.714;2023-06-14T12:58:15;5.35;;;3.00;;
78027;SDS011;67235;45.638;11.714;2023-06-14T13:00:42;5.80;;;3.20;;
78027;SDS011;67235;45.638;11.714;2023-06-14T13:03:09;7.05;;;3.58;;
78027;SDS011;67235;45.638;11.714;2023-06-14T13:05:35;8.80;;;3.63;;
78027;SDS011;67235;45.638;11.714;2023-06-14T13:08:02;5.47;;;3.17;;
78027;SDS011;67235;45.638;11.714;2023-06-14T13:10:28;5.35;;;3.10;;
78027;SDS011;67235;45.638;11.714;2023-06-14T13:12:54;7.35;;;3.33;;
78027;SDS011;67235;45.638;11.714;2023-06-14T13:15:20;6.32;;;2.92;;
78027;SDS011;67235;45.638;11.714;2023-06-14T13:17:46;6.37;;;3.40;;
78027;SDS011;67235;45.638;11.714;2023-06-14T13:20:13;6.47;;;3.30;;
78027;SDS011;67235;45.638;11.714;2023-06-14T13:22:40;8.40;;;3.38;;
78027;SDS011;67235;45.638;11.714;2023-06-14T13:25:06;5.47;;;2.93;;
78027;SDS011;67235;45.638;11.714;2023-06-14T13:27:32;6.03;;;3.30;;
78027;SDS011;67235;45.638;11.714;2023-06-14T13:29:58;7.53;;;3.55;;
78027;SDS011;67235;45.638;11.714;2023-06-14T13:32:24;5.80;;;3.20;;
78027;SDS011;67235;45.638;11.714;2023-06-14T13:34:50;5.85;;;2.95;;
78027;SDS011;67235;45.638;11.714;2023-06-14T13:37:16;5.68;;;3.05;;
78027;SDS011;67235;45.638;11.714;2023-06-14T13:39:42;5.60;;;3.17;;
78027;SDS011;67235;45.638;11.714;2023-06-14T13:42:08;6.40;;;3.30;;
78027;SDS011;67235;45.638;11.714;2023-06-14T13:44:35;6.20;;;3.20;;
78027;SDS011;67235;45.638;11.714;2023-06-14T13:47:02;6.15;;;3.00;;
78027;SDS011;67235;45.638;11.714;2023-06-14T13:49:29;5.88;;;3.08;;
78027;SDS011;67235;45.638;11.714;2023-06-14T13:51:55;7.10;;;3.57;;
78027;SDS011;67235;45.638;11.714;2023-06-14T13:54:21;6.05;;;3.30;;
78027;SDS011;67235;45.638;11.714;2023-06-14T13:56:47;6.35;;;3.33;;
78027;SDS011;67235;45.638;11.714;2023-06-14T13:59:13;5.90;;;3.03;;
78027;SDS011;67235;45.638;11.714;2023-06-14T14:01:39;9.07;;;3.33;;
78027;SDS011;67235;45.638;11.714;2023-06-14T14:04:06;6.47;;;3.30;;
78027;SDS011;67235;45.638;11.714;2023-06-14T14:06:37;5.43;;;2.90;;
78027;SDS011;67235;45.638;11.714;2023-06-14T14:09:05;6.10;;;2.83;;
78027;SDS011;67235;45.638;11.714;2023-06-14T14:11:36;5.75;;;3.20;;
78027;SDS011;67235;45.638;11.714;2023-06-14T14:14:03;6.32;;;3.30;;
78027;SDS011;67235;45.638;11.714;2023-06-14T14:16:30;6.05;;;2.90;;
78027;SDS011;67235;45.638;11.714;2023-06-14T14:18:56;5.65;;;3.08;;
78027;SDS011;67235;45.638;11.714;2023-06-14T14:21:22;5.57;;;3.10;;
78027;SDS011;67235;45.638;11.714;2023-06-14T14:23:48;6.30;;;3.00;;
78027;SDS011;67235;45.638;11.714;2023-06-14T14:26:15;5.85;;;3.15;;
78027;SDS011;67235;45.638;11.714;2023-06-14T14:28:41;6.18;;;2.90;;
78027;SDS011;67235;45.638;11.714;2023-06-14T14:31:07;5.83;;;3.13;;
78027;SDS011;67235;45.638;11.714;2023-06-14T14:33:32;5.43;;;3.10;;
78027;SDS011;67235;45.638;11.714;2023-06-14T14:36:00;6.55;;;3.40;;
78027;SDS011;67235;45.638;11.714;2023-06-14T14:38:28;5.63;;;3.03;;
78027;SDS011;67235;45.638;11.714;2023-06-14T14:40:54;5.77;;;3.10;;
78027;SDS011;67235;45.638;11.714;2023-06-14T14:43:20;6.07;;;2.97;;
78027;SDS011;67235;45.638;11.714;2023-06-14T14:45:46;5.93;;;3.17;;
78027;SDS011;67235;45.638;11.714;2023-06-14T14:48:12;7.00;;;3.20;;